SBCR

Corumbá International Airport

Corumbá, Brazil
TAF SBCR 210300Z 2106/2206 22008KT CAVOK TN13/2108Z TX22/2118Z BECMG 2122/2124 09005KT RMK PER
Issued Valid From Valid To
Jul-21 @ 03:00 UTC
(7 hours ago)
Jul-21 @ 06:00 UTC
(4 hours ago)
Jul-22 @ 06:00 UTC
(in 20 hours)
Jul-21 @ 06:00 to Jul-21 @ 22:00
TAF SBCR 210300Z 2106/2206 22008KT CAVOK TN13/2108Z TX22/2118Z
Wind Visibility Clouds
220° at 8 knots 10,000+ meters
  • No significant clouds
Becoming Jul-21 @ 22:00 to Jul-22 @ 06:00
BECMG 2122/2124 09005KT RMK PER
Wind Visibility Clouds
90° at 5 knots 10,000+ meters
  • No significant clouds
TAF SBCR 210300Z 2106/2206 22008KT CAVOK TN13/2108Z TX22/2118Z BECMG 2122/2124 09005KT RMK PER
Issued Jul-21 @ 03:00 UTC
(7 hours ago)
Valid From Jul-21 @ 06:00 UTC
(4 hours ago)
Valid To Jul-22 @ 06:00 UTC
(in 20 hours)
Jul-21 @ 06:00 - Jul-21 @ 22:00
Wind Visibility
220° at 8 knots 10,000+ meters
Clouds
  • No significant clouds
Becoming Jul-21 @ 22:00 - Jul-22 @ 06:00
Wind Visibility
90° at 5 knots 10,000+ meters
Clouds
  • No significant clouds